Time;durP1;ratioP1;P1;durP2;ratioP2;P2;SDS_P1;SDS_P2;PMS_P1;PMS_P2;Temp;Humidity;BMP_temperature;BMP_pressure;BME280_temperature;BME280_humidity;BME280_pressure;Samples;Min_cycle;Max_cycle;Signal;HPM_P1;HPM_P2
2022/05/30 00:01:53;;;;;;;8.37;2.33;;;12.20;99.90;;;;;;5104687;28;20195;-90
2022/05/30 00:04:19;;;;;;;6.17;2.27;;;12.10;99.90;;;;;;5095186;28;20235;-90
2022/05/30 00:06:45;;;;;;;3.20;1.93;;;12.00;99.90;;;;;;5094724;28;20220;-90
2022/05/30 00:09:13;;;;;;;5.17;2.10;;;12.00;99.90;;;;;;5105890;28;20204;-89
2022/05/30 00:11:40;;;;;;;8.00;2.67;;;12.10;99.90;;;;;;5114919;28;20213;-90
2022/05/30 00:14:06;;;;;;;3.90;2.10;;;12.10;99.90;;;;;;5115162;28;20714;-91
2022/05/30 00:16:34;;;;;;;6.77;2.20;;;12.20;99.90;;;;;;5116620;28;20179;-90
2022/05/30 00:19:00;;;;;;;5.20;2.33;;;12.00;99.90;;;;;;5118631;28;20539;-90
2022/05/30 00:21:26;;;;;;;2.43;1.97;;;11.90;99.90;;;;;;5118582;28;20201;-90
2022/05/30 00:23:53;;;;;;;4.90;2.17;;;11.80;99.90;;;;;;5102435;28;20196;-91
2022/05/30 00:26:20;;;;;;;6.07;2.13;;;11.70;99.90;;;;;;5098014;28;20202;-91
2022/05/30 00:28:46;;;;;;;5.33;2.03;;;11.70;99.90;;;;;;5097672;28;20191;-90
2022/05/30 00:31:14;;;;;;;4.70;2.53;;;11.60;99.90;;;;;;5097966;28;20199;-90
2022/05/30 00:33:43;;;;;;;3.87;2.10;;;11.50;99.90;;;;;;5097716;28;20182;-90
2022/05/30 00:36:09;;;;;;;4.27;2.13;;;11.50;99.90;;;;;;5102422;28;20183;-90
2022/05/30 00:38:35;;;;;;;5.13;2.43;;;11.50;99.90;;;;;;5097452;28;20187;-90
2022/05/30 00:41:01;;;;;;;7.60;2.17;;;11.40;99.90;;;;;;5097765;28;20635;-90
2022/05/30 00:43:31;;;;;;;4.67;2.30;;;11.40;99.90;;;;;;5097522;28;20178;-90
2022/05/30 00:45:59;;;;;;;3.03;2.53;;;11.30;99.90;;;;;;5097656;28;20224;-90
2022/05/30 00:48:38;;;;;;;5.33;2.57;;;11.40;99.90;;;;;;5097206;28;20636;-89
2022/05/30 00:51:13;;;;;;;6.13;2.57;;;11.40;99.90;;;;;;5111311;28;20190;-90
2022/05/30 00:53:40;;;;;;;7.70;2.37;;;11.40;99.90;;;;;;5117270;28;20185;-90
2022/05/30 00:56:09;;;;;;;8.10;2.80;;;11.30;99.90;;;;;;5117472;28;20189;-90
2022/05/30 00:58:40;;;;;;;6.90;2.70;;;11.20;99.90;;;;;;5117488;28;20202;-90
2022/05/30 01:01:06;;;;;;;9.27;2.73;;;11.20;99.90;;;;;;5116029;28;20185;-89
2022/05/30 01:06:31;;;;;;;4.07;2.40;;;11.50;99.90;;;;;;5115545;28;20252;-90
2022/05/30 01:08:59;;;;;;;7.77;2.83;;;11.40;99.90;;;;;;5107035;28;20186;-90
2022/05/30 01:11:24;;;;;;;6.03;2.93;;;11.30;99.90;;;;;;5117150;28;20288;-91
2022/05/30 01:13:50;;;;;;;5.23;2.53;;;11.20;99.90;;;;;;5117569;28;20198;-90
2022/05/30 01:16:16;;;;;;;7.87;2.73;;;11.30;99.90;;;;;;5117119;28;20657;-90
2022/05/30 01:18:53;;;;;;;5.27;3.50;;;11.20;99.90;;;;;;5105399;28;20184;-90
2022/05/30 01:22:00;;;;;;;5.13;2.60;;;11.10;99.90;;;;;;5113409;28;20281;-90
2022/05/30 01:24:52;;;;;;;5.33;2.53;;;11.00;99.90;;;;;;5065778;28;20192;-91
2022/05/30 01:27:46;;;;;;;3.47;2.60;;;10.90;99.90;;;;;;5096039;28;20557;-90
2022/05/30 01:30:15;;;;;;;4.43;2.57;;;10.90;99.90;;;;;;5096607;28;20213;-91
2022/05/30 01:32:40;;;;;;;6.53;2.70;;;10.90;99.90;;;;;;5097197;28;20191;-95
2022/05/30 01:35:07;;;;;;;4.23;3.13;;;11.00;99.90;;;;;;5097889;28;20280;-94
2022/05/30 01:37:35;;;;;;;7.97;3.67;;;11.00;99.90;;;;;;5100652;28;20571;-95
2022/05/30 01:40:01;;;;;;;8.03;3.30;;;11.10;99.90;;;;;;5109576;28;20222;-95
2022/05/30 01:42:27;;;;;;;5.70;3.07;;;11.00;99.90;;;;;;5117076;28;20629;-95
2022/05/30 01:44:53;;;;;;;5.73;3.27;;;11.00;99.90;;;;;;5116691;28;20266;-95
2022/05/30 01:47:19;;;;;;;4.00;2.70;;;11.10;99.90;;;;;;5117310;28;20196;-94
2022/05/30 01:49:44;;;;;;;5.20;3.27;;;10.90;99.90;;;;;;5116951;28;20210;-93
2022/05/30 01:52:10;;;;;;;6.57;3.07;;;10.90;99.90;;;;;;5110344;28;20559;-94
2022/05/30 01:54:36;;;;;;;5.43;2.90;;;10.80;99.90;;;;;;5101724;28;20181;-90
2022/05/30 01:57:03;;;;;;;5.80;3.10;;;10.70;99.90;;;;;;5106738;28;20270;-94
2022/05/30 01:59:29;;;;;;;5.50;3.00;;;10.70;99.90;;;;;;5118521;28;20185;-92
2022/05/30 02:01:55;;;;;;;6.73;3.37;;;10.70;99.90;;;;;;5128580;27;20161;-93
2022/05/30 02:04:20;;;;;;;9.33;3.57;;;10.60;99.90;;;;;;5126352;28;20172;-90
2022/05/30 02:06:46;;;;;;;6.27;3.40;;;10.80;99.90;;;;;;5115854;28;20184;-91
2022/05/30 02:09:13;;;;;;;5.97;3.27;;;10.80;99.90;;;;;;5104078;28;20205;-90
2022/05/30 02:11:38;;;;;;;14.07;4.30;;;10.70;99.90;;;;;;5096278;28;20583;-90
2022/05/30 02:14:04;;;;;;;10.57;3.17;;;10.70;99.90;;;;;;5096178;28;20189;-90
2022/05/30 02:19:18;;;;;;;5.63;3.10;;;10.70;99.90;;;;;;5114420;28;20208;-90
2022/05/30 02:21:44;;;;;;;12.93;3.80;;;10.60;99.90;;;;;;5096080;28;20194;-90
2022/05/30 02:24:09;;;;;;;7.23;3.67;;;10.60;99.90;;;;;;5095959;28;20181;-91
2022/05/30 02:26:36;;;;;;;12.33;3.60;;;10.70;99.90;;;;;;5103730;28;20185;-90
2022/05/30 02:29:03;;;;;;;10.07;3.87;;;10.60;99.90;;;;;;5116290;28;20639;-91
2022/05/30 02:31:29;;;;;;;9.70;4.37;;;10.50;99.90;;;;;;5116350;28;20267;-91
2022/05/30 02:36:44;;;;;;;6.83;3.70;;;10.60;99.90;;;;;;5114931;28;20188;-91
2022/05/30 02:39:15;;;;;;;7.90;4.03;;;10.60;99.90;;;;;;5094858;28;20188;-91
2022/05/30 02:41:42;;;;;;;7.60;3.67;;;10.50;99.90;;;;;;5095454;28;20259;-91
2022/05/30 02:44:08;;;;;;;9.30;3.83;;;10.50;99.90;;;;;;5095588;28;20250;-90
2022/05/30 02:46:34;;;;;;;8.40;3.50;;;10.40;99.90;;;;;;5102690;28;20205;-90
2022/05/30 02:49:00;;;;;;;7.07;4.03;;;10.30;99.90;;;;;;5111901;28;20185;-91
2022/05/30 02:51:26;;;;;;;8.93;4.13;;;10.40;99.90;;;;;;5111941;28;20205;-90
2022/05/30 02:53:52;;;;;;;7.87;3.50;;;10.40;99.90;;;;;;5095327;28;20207;-90
2022/05/30 02:56:18;;;;;;;6.60;4.20;;;10.40;99.90;;;;;;5095157;28;20265;-90
2022/05/30 02:58:44;;;;;;;7.23;3.67;;;10.30;99.90;;;;;;5095326;28;20209;-90
2022/05/30 03:01:11;;;;;;;4.00;3.20;;;10.30;99.90;;;;;;5119852;28;20209;-90
2022/05/30 03:03:37;;;;;;;6.87;3.83;;;10.20;99.90;;;;;;5095590;28;20186;-90
2022/05/30 03:06:03;;;;;;;6.20;3.90;;;10.30;99.90;;;;;;5095231;28;20283;-90
2022/05/30 03:08:30;;;;;;;8.23;4.47;;;10.50;99.90;;;;;;5096289;28;20178;-90
2022/05/30 03:10:56;;;;;;;9.97;4.37;;;10.30;99.90;;;;;;5114857;28;20209;-91
2022/05/30 03:13:21;;;;;;;7.50;4.27;;;10.30;99.90;;;;;;5115209;28;20188;-89
2022/05/30 03:15:47;;;;;;;8.13;3.63;;;10.30;99.90;;;;;;5115802;28;20648;-91
2022/05/30 03:18:14;;;;;;;7.53;4.77;;;10.30;99.90;;;;;;5115767;28;20697;-91
2022/05/30 03:20:39;;;;;;;7.73;4.67;;;10.30;99.90;;;;;;5115340;28;20665;-90
2022/05/30 03:23:06;;;;;;;10.90;4.67;;;10.20;99.90;;;;;;5115416;28;20176;-91
2022/05/30 03:25:31;;;;;;;12.00;4.80;;;10.30;99.90;;;;;;5115579;28;20181;-90
2022/05/30 03:27:57;;;;;;;8.47;4.40;;;10.30;99.90;;;;;;5115807;28;20271;-91
2022/05/30 03:30:23;;;;;;;7.63;4.40;;;10.20;99.90;;;;;;5103513;28;20193;-90
2022/05/30 03:32:49;;;;;;;10.00;4.50;;;10.10;99.90;;;;;;5100991;28;20292;-89
2022/05/30 03:35:16;;;;;;;8.70;4.43;;;10.00;99.90;;;;;;5106212;28;20708;-90
2022/05/30 03:37:42;;;;;;;7.53;4.60;;;10.00;99.90;;;;;;5118770;28;20188;-90
2022/05/30 03:40:11;;;;;;;9.40;4.50;;;10.00;99.90;;;;;;5117630;28;20709;-90
2022/05/30 03:42:36;;;;;;;10.70;4.80;;;10.10;99.90;;;;;;5115527;28;20192;-90
2022/05/30 03:45:03;;;;;;;6.30;4.60;;;10.10;99.90;;;;;;5115335;28;20180;-90
2022/05/30 03:47:38;;;;;;;7.83;4.70;;;10.10;99.90;;;;;;5115218;28;20205;-90
2022/05/30 03:50:05;;;;;;;6.87;4.37;;;10.20;99.90;;;;;;5114925;28;20289;-90
2022/05/30 03:52:30;;;;;;;11.20;5.00;;;10.10;99.90;;;;;;5118661;28;20179;-90
2022/05/30 03:54:56;;;;;;;6.97;4.77;;;10.10;99.90;;;;;;5111734;28;20177;-90
2022/05/30 03:57:22;;;;;;;9.03;4.83;;;10.10;99.90;;;;;;5098031;28;20197;-90
2022/05/30 03:59:48;;;;;;;11.73;4.87;;;10.20;99.90;;;;;;5109174;28;20610;-90
2022/05/30 04:02:13;;;;;;;11.00;5.43;;;10.10;99.90;;;;;;5113014;28;20283;-89
2022/05/30 04:04:39;;;;;;;9.33;6.20;;;10.10;99.90;;;;;;5118506;28;20185;-90
2022/05/30 04:07:06;;;;;;;11.20;5.50;;;10.10;99.90;;;;;;5113577;28;20188;-90
2022/05/30 04:09:31;;;;;;;10.00;5.13;;;10.10;99.90;;;;;;5117806;28;20253;-89
2022/05/30 04:11:57;;;;;;;8.60;5.07;;;10.20;99.90;;;;;;5118355;28;20189;-90
2022/05/30 04:14:23;;;;;;;11.70;5.27;;;10.30;99.90;;;;;;5118429;28;20197;-90
2022/05/30 04:16:50;;;;;;;8.03;5.57;;;10.40;99.90;;;;;;5118219;28;20276;-90
2022/05/30 04:19:16;;;;;;;8.53;5.37;;;10.40;99.90;;;;;;5117967;28;20184;-90
2022/05/30 04:21:41;;;;;;;9.27;5.73;;;10.50;99.90;;;;;;5118445;28;20181;-90
2022/05/30 04:24:07;;;;;;;7.13;5.10;;;10.40;99.90;;;;;;5109447;28;20170;-90
2022/05/30 04:26:33;;;;;;;11.33;5.70;;;10.30;99.90;;;;;;5097962;28;20204;-90
2022/05/30 04:28:59;;;;;;;8.13;5.13;;;10.50;99.90;;;;;;5097585;28;20178;-90
2022/05/30 04:31:24;;;;;;;11.43;6.17;;;10.60;99.90;;;;;;5103939;28;20262;-90
2022/05/30 04:33:50;;;;;;;12.13;5.77;;;10.60;99.90;;;;;;5102232;28;20174;-90
2022/05/30 04:36:16;;;;;;;7.57;5.50;;;10.60;99.90;;;;;;5097327;28;20642;-89
2022/05/30 04:38:41;;;;;;;11.47;5.70;;;10.70;99.90;;;;;;5097528;28;20219;-90
2022/05/30 04:41:07;;;;;;;11.93;5.97;;;10.80;99.90;;;;;;5097694;28;20213;-90
2022/05/30 04:43:51;;;;;;;15.33;6.70;;;11.00;99.90;;;;;;5097805;28;20184;-92
2022/05/30 04:46:21;;;;;;;11.57;5.70;;;11.10;99.90;;;;;;5097561;28;20170;-91
2022/05/30 04:48:47;;;;;;;9.70;4.53;;;11.10;99.90;;;;;;5102177;28;20191;-91
2022/05/30 04:51:14;;;;;;;8.87;5.17;;;11.20;99.90;;;;;;5102690;28;20243;-91
2022/05/30 04:53:40;;;;;;;10.30;4.53;;;11.40;99.90;;;;;;5112469;28;20233;-91
2022/05/30 04:56:06;;;;;;;10.07;4.30;;;11.50;99.90;;;;;;5117564;28;20287;-90
2022/05/30 04:58:34;;;;;;;8.73;4.67;;;11.50;99.90;;;;;;5110020;28;20194;-90
2022/05/30 05:01:05;;;;;;;9.50;4.40;;;11.60;99.90;;;;;;5105885;28;20176;-91
2022/05/30 05:03:33;;;;;;;10.00;4.67;;;11.60;99.90;;;;;;5096558;28;20186;-94
2022/05/30 05:06:17;;;;;;;10.33;5.30;;;11.60;99.90;;;;;;5097209;28;20196;-94
2022/05/30 05:08:54;;;;;;;7.83;4.40;;;11.80;99.90;;;;;;5097385;28;20174;-94
2022/05/30 05:11:23;;;;;;;13.10;4.70;;;11.90;99.90;;;;;;5103592;28;20294;-96
2022/05/30 05:13:49;;;;;;;10.67;4.57;;;11.90;99.90;;;;;;5103692;28;20200;-94
2022/05/30 05:16:16;;;;;;;11.77;4.47;;;11.90;99.90;;;;;;5100061;28;20175;-94
2022/05/30 05:18:42;;;;;;;7.20;3.77;;;11.90;99.90;;;;;;5109013;28;20171;-91
2022/05/30 05:21:07;;;;;;;8.23;3.70;;;12.00;99.90;;;;;;5105188;28;20200;-90
2022/05/30 05:23:34;;;;;;;11.37;3.80;;;12.20;99.90;;;;;;5107712;28;20173;-91
2022/05/30 05:26:03;;;;;;;9.47;4.63;;;12.40;99.90;;;;;;5100518;28;20210;-91
2022/05/30 05:28:28;;;;;;;15.47;4.40;;;12.40;99.90;;;;;;5106710;28;20171;-90
2022/05/30 05:30:54;;;;;;;8.63;4.23;;;12.40;99.90;;;;;;5102714;28;20199;-90
2022/05/30 05:33:20;;;;;;;14.70;4.23;;;12.50;99.90;;;;;;5108121;28;20190;-91
2022/05/30 05:35:46;;;;;;;13.43;4.43;;;12.90;99.90;;;;;;5110650;28;20208;-91
2022/05/30 05:38:12;;;;;;;15.40;4.23;;;12.80;99.90;;;;;;5100026;28;20211;-91
2022/05/30 05:40:43;;;;;;;14.83;4.73;;;12.90;99.90;;;;;;5117480;28;20183;-90
2022/05/30 05:43:09;;;;;;;11.33;3.97;;;13.00;99.90;;;;;;5116057;28;20218;-90
2022/05/30 05:45:36;;;;;;;15.93;4.70;;;13.30;99.90;;;;;;5097099;28;20561;-90
2022/05/30 05:48:02;;;;;;;11.13;5.33;;;13.30;99.90;;;;;;5097061;28;20184;-90
2022/05/30 05:50:28;;;;;;;10.53;5.20;;;13.30;99.90;;;;;;5096334;28;20216;-89
2022/05/30 05:52:54;;;;;;;10.63;5.03;;;13.40;99.90;;;;;;5113756;28;20190;-90
2022/05/30 07:06:29;;;;;;;5.73;1.53;;;15.60;99.30;;;;;;5882604;22;20289;-96
2022/05/30 07:08:55;;;;;;;4.97;1.10;;;15.60;99.10;;;;;;5039869;28;20177;-90
2022/05/30 07:11:22;;;;;;;4.97;1.23;;;15.50;97.90;;;;;;5053033;28;20175;-90
2022/05/30 07:14:23;;;;;;;;;;;;;;;;;;;;;
2022/05/30 07:17:00;;;;;;;;;;;;;;;;;;;;;
2022/05/30 07:49:45;;;;;;;5.73;1.13;;;15.30;96.10;;;;;;5060448;22;20290;-92
2022/05/30 10:03:41;;;;;;;6.27;1.60;;;17.00;90.20;;;;;;6049941;23;20187;31
2022/05/30 10:06:17;;;;;;;3.57;1.23;;;17.00;90.60;;;;;;4900858;29;20294;-94
2022/05/30 10:08:44;;;;;;;2.33;1.43;;;17.00;90.70;;;;;;4916099;29;20671;-89
2022/05/30 10:11:25;;;;;;;5.93;1.60;;;16.90;90.50;;;;;;4915832;29;20306;-89
2022/05/30 10:13:53;;;;;;;3.97;1.47;;;16.90;90.80;;;;;;4914694;29;20199;-89
2022/05/30 10:16:35;;;;;;;5.43;1.40;;;16.90;91.60;;;;;;4915094;29;20180;-89
2022/05/30 10:19:09;;;;;;;4.17;1.50;;;17.00;90.90;;;;;;4915727;29;20197;-88
2022/05/30 10:28:14;;;;;;;2.63;1.20;;;17.00;90.50;;;;;;4899491;29;20239;-89
2022/05/30 10:28:14;;;;;;;3.73;1.60;;;17.30;90.10;;;;;;4916533;29;20204;-88
2022/05/30 10:30:51;;;;;;;4.03;1.53;;;17.50;90.10;;;;;;4899965;29;20216;-89
2022/05/30 10:33:37;;;;;;;3.50;1.23;;;17.60;87.90;;;;;;4896600;29;20227;-88
2022/05/30 10:36:11;;;;;;;5.70;1.50;;;17.70;87.80;;;;;;4904967;29;20652;-89
2022/05/30 10:39:05;;;;;;;4.77;1.57;;;17.70;88.30;;;;;;4915482;29;20195;-89
2022/05/30 10:41:41;;;;;;;6.73;1.90;;;17.70;87.60;;;;;;4915486;29;20199;-89
2022/05/30 10:44:26;;;;;;;2.80;1.77;;;17.50;88.40;;;;;;4901215;29;20203;-89
2022/05/30 10:47:15;;;;;;;5.43;1.50;;;17.60;89.30;;;;;;4911782;29;20180;-89
2022/05/30 10:49:58;;;;;;;3.37;1.30;;;17.80;88.40;;;;;;4927653;29;20216;-89
2022/05/30 10:52:32;;;;;;;7.67;1.60;;;17.80;89.40;;;;;;4927373;29;20564;-88
2022/05/30 10:55:04;;;;;;;4.57;1.87;;;17.60;89.20;;;;;;4903564;29;20180;-91
2022/05/30 10:57:44;;;;;;;6.00;1.97;;;17.80;87.80;;;;;;4889249;29;20213;-90
2022/05/30 11:00:12;;;;;;;3.90;1.60;;;17.90;87.70;;;;;;4880975;29;20188;-91
2022/05/30 11:02:47;;;;;;;3.57;1.30;;;18.00;87.10;;;;;;4880698;29;20260;-89
2022/05/30 11:05:38;;;;;;;5.10;1.60;;;18.10;87.90;;;;;;4896123;29;20201;-89
2022/05/30 11:08:25;;;;;;;8.37;1.77;;;18.00;86.30;;;;;;4909140;29;20189;-89
2022/05/30 11:11:00;;;;;;;5.23;1.60;;;17.80;87.80;;;;;;4896519;29;20217;-88
2022/05/30 11:13:37;;;;;;;5.93;1.77;;;17.90;87.40;;;;;;4881201;29;20189;-89
2022/05/30 11:16:31;;;;;;;5.53;1.70;;;18.00;87.20;;;;;;4880549;29;20198;-89
2022/05/30 11:19:24;;;;;;;3.97;1.27;;;18.20;85.80;;;;;;4901769;29;20199;-89
2022/05/30 11:22:11;;;;;;;7.90;1.60;;;18.60;83.60;;;;;;4867149;29;20183;-89
2022/05/30 11:24:39;;;;;;;5.90;1.77;;;18.70;83.60;;;;;;4879492;29;20185;-89
2022/05/30 11:27:14;;;;;;;3.80;1.60;;;18.50;84.10;;;;;;4880428;29;20228;-89
2022/05/30 11:30:25;;;;;;;5.40;1.57;;;18.60;84.10;;;;;;4880951;29;20217;-89
2022/05/30 11:32:54;;;;;;;7.40;1.83;;;18.60;85.80;;;;;;4880254;29;20214;-89
2022/05/30 11:35:43;;;;;;;5.13;1.83;;;18.90;84.50;;;;;;4899608;29;20209;-89
2022/05/30 11:38:24;;;;;;;5.20;2.00;;;19.10;83.40;;;;;;4876851;29;20200;-89
2022/05/30 11:41:14;;;;;;;4.43;1.63;;;19.40;82.60;;;;;;4880711;29;20232;-88
2022/05/30 11:43:55;;;;;;;5.90;1.60;;;19.60;81.30;;;;;;4911827;29;20224;-89
2022/05/30 11:46:32;;;;;;;2.87;1.60;;;19.80;81.00;;;;;;4909501;29;20687;-89
2022/05/30 11:49:20;;;;;;;5.40;1.90;;;19.80;81.00;;;;;;4894350;29;20247;-89
2022/05/30 11:51:58;;;;;;;4.87;1.67;;;19.70;81.70;;;;;;4861051;29;20223;-91
2022/05/30 11:54:46;;;;;;;5.40;2.00;;;20.00;80.50;;;;;;4895937;29;20279;-89
2022/05/30 11:57:36;;;;;;;5.50;1.97;;;20.20;78.70;;;;;;4896056;29;20226;-89
2022/05/30 12:00:45;;;;;;;4.77;1.87;;;19.90;78.90;;;;;;4903265;29;20230;-89
2022/05/30 12:03:29;;;;;;;5.50;1.93;;;19.70;79.00;;;;;;4873728;29;20226;-89
2022/05/30 12:05:58;;;;;;;3.10;1.67;;;19.80;78.90;;;;;;4911620;29;20213;-89
2022/05/30 12:08:41;;;;;;;6.13;1.90;;;19.70;79.00;;;;;;4907301;29;20195;-89
2022/05/30 12:11:41;;;;;;;6.27;2.17;;;19.80;78.60;;;;;;4905694;29;20226;-89
2022/05/30 12:14:38;;;;;;;4.93;1.93;;;20.20;79.30;;;;;;4880693;29;20636;-88
2022/05/30 12:17:29;;;;;;;2.87;1.77;;;20.40;76.50;;;;;;4894783;29;20192;-89
2022/05/30 12:25:51;;;;;;;5.00;1.90;;;20.00;77.20;;;;;;4899027;29;20214;-88
2022/05/30 12:28:31;;;;;;;4.70;2.33;;;20.20;78.60;;;;;;4883692;29;20614;-88
2022/05/30 12:31:00;;;;;;;2.90;1.63;;;20.40;76.90;;;;;;4908909;29;20320;-89
2022/05/30 12:33:45;;;;;;;4.23;1.83;;;20.30;76.90;;;;;;4880185;29;20656;-89
2022/05/30 12:36:11;;;;;;;4.37;1.60;;;20.60;75.60;;;;;;4864948;29;20293;-89
2022/05/30 12:38:56;;;;;;;3.67;1.93;;;20.90;76.20;;;;;;4879848;29;20287;-89
2022/05/30 12:41:32;;;;;;;5.50;1.80;;;21.10;75.00;;;;;;4869715;29;20197;-88
2022/05/30 12:43:59;;;;;;;4.33;1.73;;;21.20;74.20;;;;;;4864840;29;20260;-88
2022/05/30 12:46:28;;;;;;;6.67;2.20;;;21.00;74.70;;;;;;4864507;29;20563;-88
2022/05/30 12:49:14;;;;;;;7.37;2.40;;;21.00;74.30;;;;;;4869354;29;20217;-88
2022/05/30 12:51:57;;;;;;;9.93;2.27;;;21.00;74.20;;;;;;4883569;29;20196;-89
2022/05/30 12:54:46;;;;;;;5.10;1.90;;;21.00;73.80;;;;;;4882225;29;20195;-88
2022/05/30 15:36:09;;;;;;;3.95;1.45;;;22.00;64.00;;;;;;5736281;23;1557785;-88
2022/05/30 15:38:35;;;;;;;6.37;1.63;;;22.10;63.60;;;;;;4918530;29;20199;-89
2022/05/30 15:41:01;;;;;;;4.03;1.80;;;22.00;66.10;;;;;;4918857;29;20190;-90
2022/05/30 15:43:27;;;;;;;5.10;1.37;;;22.00;66.20;;;;;;4918807;29;20175;-88
2022/05/30 15:45:53;;;;;;;3.43;1.50;;;21.90;66.80;;;;;;4919625;29;20172;-89
2022/05/30 15:48:19;;;;;;;4.70;1.40;;;21.90;67.10;;;;;;4922709;29;20176;-89
2022/05/30 15:50:45;;;;;;;5.57;1.77;;;21.90;65.30;;;;;;4924936;29;20606;-89
2022/05/30 15:58:45;;;;;;;5.10;1.53;;;22.10;65.10;;;;;;4913248;29;20544;-88
2022/05/30 16:01:10;;;;;;;2.60;1.10;;;22.10;65.10;;;;;;4885011;29;20248;-87
2022/05/30 16:03:36;;;;;;;4.53;1.50;;;22.20;66.30;;;;;;4899441;29;20188;-90
2022/05/30 16:06:02;;;;;;;2.83;1.10;;;22.80;61.90;;;;;;4903455;29;20199;-88
2022/05/30 16:08:36;;;;;;;3.80;1.20;;;23.10;61.60;;;;;;4898586;29;20216;-88
2022/05/30 16:11:02;;;;;;;5.50;2.10;;;23.40;63.80;;;;;;4884707;29;20697;-88
2022/05/30 16:13:28;;;;;;;5.43;1.80;;;23.40;64.00;;;;;;4885552;29;20170;-88
2022/05/30 16:15:55;;;;;;;6.77;2.00;;;23.20;63.60;;;;;;4884303;29;20177;-88
2022/05/30 16:18:21;;;;;;;7.00;2.20;;;22.90;64.80;;;;;;4884928;29;20271;-88
2022/05/30 16:20:52;;;;;;;3.83;1.77;;;22.70;66.00;;;;;;4884756;29;20181;-91
2022/05/30 16:23:22;;;;;;;8.17;1.87;;;22.40;67.60;;;;;;4884806;29;20181;-87
2022/05/30 16:25:49;;;;;;;7.77;2.23;;;22.30;66.70;;;;;;4884064;29;20638;-88
2022/05/30 16:28:15;;;;;;;2.83;1.53;;;22.30;66.60;;;;;;4884680;29;20185;-88
2022/05/30 16:30:40;;;;;;;7.03;2.33;;;22.30;66.20;;;;;;4884592;29;20209;-88
2022/05/30 16:33:06;;;;;;;3.77;1.40;;;22.40;65.00;;;;;;4884300;29;20176;-89
2022/05/30 16:35:33;;;;;;;4.73;1.70;;;22.30;65.30;;;;;;4884601;29;20185;-88
2022/05/30 16:37:59;;;;;;;5.40;1.60;;;22.40;65.00;;;;;;4884148;29;20262;-87
2022/05/30 16:40:29;;;;;;;3.67;1.50;;;22.40;64.20;;;;;;4884321;29;20250;-87
2022/05/30 16:42:55;;;;;;;5.37;1.70;;;22.10;65.10;;;;;;4884096;29;20193;-88
2022/05/30 16:45:21;;;;;;;6.40;1.60;;;22.20;66.10;;;;;;4884312;29;20215;-88
2022/05/30 16:47:48;;;;;;;6.33;1.80;;;22.20;67.00;;;;;;4883697;29;20630;-87
2022/05/30 16:50:16;;;;;;;4.67;1.70;;;22.10;67.60;;;;;;4884235;29;20708;-88
2022/05/30 16:52:41;;;;;;;4.03;2.10;;;22.20;66.50;;;;;;4884120;29;20203;-88
2022/05/30 16:55:07;;;;;;;4.53;1.67;;;22.30;65.20;;;;;;4884440;29;20201;-89
2022/05/30 16:57:33;;;;;;;5.43;2.23;;;22.20;65.80;;;;;;4883551;29;20209;-88
2022/05/30 16:59:59;;;;;;;5.80;2.30;;;22.20;66.00;;;;;;4884235;29;20232;-88
2022/05/30 17:02:25;;;;;;;4.73;1.50;;;22.10;67.00;;;;;;4884065;29;20200;-88
2022/05/30 17:04:51;;;;;;;3.73;1.40;;;22.10;66.80;;;;;;4884100;29;20201;-89
2022/05/30 17:07:17;;;;;;;3.97;1.70;;;22.00;65.50;;;;;;4883517;29;20283;-88
2022/05/30 17:09:43;;;;;;;5.57;1.70;;;22.10;65.70;;;;;;4883454;29;20228;-88
2022/05/30 17:12:12;;;;;;;4.93;1.80;;;22.40;67.20;;;;;;4884051;29;20234;-88
2022/05/30 17:14:39;;;;;;;3.97;2.30;;;22.50;66.70;;;;;;4883776;29;20200;-88
2022/05/30 17:17:12;;;;;;;7.07;1.80;;;22.80;64.50;;;;;;4883768;29;20272;-88
2022/05/30 17:19:37;;;;;;;4.57;1.53;;;22.60;65.40;;;;;;4883310;29;20253;-88
2022/05/30 17:22:03;;;;;;;4.90;1.80;;;22.60;65.20;;;;;;4883639;29;20264;-89
2022/05/30 17:24:29;;;;;;;5.77;1.73;;;22.60;66.90;;;;;;4884805;29;20173;-88
2022/05/30 17:29:43;;;;;;;2.87;1.33;;;22.90;65.30;;;;;;4902413;29;20220;-89
2022/05/30 17:32:16;;;;;;;3.57;1.30;;;22.80;65.70;;;;;;4888921;29;20531;-88
2022/05/30 17:34:42;;;;;;;3.63;1.40;;;22.60;65.40;;;;;;4889292;29;20184;-88
2022/05/30 17:37:08;;;;;;;2.30;1.40;;;22.50;65.70;;;;;;4889552;29;20185;-89
2022/05/30 17:39:33;;;;;;;4.10;1.50;;;22.40;67.00;;;;;;4893156;29;20182;-88
2022/05/30 17:41:59;;;;;;;4.17;1.70;;;22.50;66.50;;;;;;4896036;29;20181;-89
2022/05/30 17:44:25;;;;;;;5.10;1.77;;;22.60;66.80;;;;;;4895466;29;20623;-89
2022/05/30 17:46:57;;;;;;;3.13;1.40;;;22.50;66.80;;;;;;4895427;29;20700;-88
2022/05/30 17:49:46;;;;;;;3.00;1.53;;;22.50;66.20;;;;;;4889720;29;20185;-89
2022/05/30 17:52:36;;;;;;;3.87;1.37;;;22.40;66.80;;;;;;4882767;29;20510;-88
2022/05/30 17:55:05;;;;;;;3.27;1.30;;;22.20;67.40;;;;;;4884034;29;20177;-89
2022/05/30 17:57:31;;;;;;;2.33;1.30;;;22.10;65.50;;;;;;4883501;29;20556;-89
2022/05/30 17:59:57;;;;;;;7.57;1.80;;;22.20;66.50;;;;;;4883523;29;20207;-90
2022/05/30 18:02:23;;;;;;;5.80;1.60;;;22.20;66.20;;;;;;4882784;29;20178;-89
2022/05/30 18:04:48;;;;;;;3.47;1.23;;;22.20;68.60;;;;;;4883442;29;20206;-91
2022/05/30 18:07:43;;;;;;;4.77;1.20;;;22.30;66.40;;;;;;4883000;29;20181;-92
2022/05/30 18:10:31;;;;;;;2.70;1.53;;;22.40;66.80;;;;;;4864154;29;20618;-90
2022/05/30 18:13:24;;;;;;;2.67;1.10;;;22.50;66.80;;;;;;4882554;29;20182;-90
2022/05/30 18:16:09;;;;;;;3.27;1.30;;;22.90;66.30;;;;;;4883257;29;20704;-89
2022/05/30 18:21:59;;;;;;;3.13;1.23;;;23.10;65.60;;;;;;4899960;29;20274;-89
2022/05/30 18:24:40;;;;;;;2.83;1.27;;;23.00;66.00;;;;;;4895139;29;20201;-90
2022/05/30 18:27:08;;;;;;;6.30;1.60;;;23.10;65.30;;;;;;4883249;29;20201;-91
2022/05/30 18:29:36;;;;;;;4.13;1.77;;;23.20;64.80;;;;;;4883354;29;20208;-91
2022/05/30 18:32:31;;;;;;;3.67;1.80;;;23.30;64.40;;;;;;4883615;29;20685;-91
2022/05/30 18:35:34;;;;;;;3.37;1.40;;;23.10;65.70;;;;;;4882425;29;20639;-91
2022/05/30 18:38:28;;;;;;;3.80;1.40;;;22.90;65.20;;;;;;4889407;29;20214;-91
2022/05/30 18:40:58;;;;;;;3.50;1.50;;;23.00;65.60;;;;;;4882408;29;20296;-92
2022/05/30 18:43:42;;;;;;;2.53;1.20;;;22.90;65.20;;;;;;4882080;29;20204;-89
2022/05/30 18:46:11;;;;;;;4.57;1.80;;;22.80;65.80;;;;;;4882571;29;20208;-90
2022/05/30 18:48:55;;;;;;;5.10;1.80;;;22.70;65.80;;;;;;4882224;29;20207;-90
2022/05/30 18:51:22;;;;;;;2.87;1.70;;;22.60;67.00;;;;;;4881966;29;20233;-89
2022/05/30 18:53:48;;;;;;;3.70;1.60;;;22.40;66.80;;;;;;4882271;29;20293;-89
2022/05/30 18:56:21;;;;;;;6.43;1.80;;;22.30;66.90;;;;;;4881600;29;20717;-90
2022/05/30 18:58:52;;;;;;;3.30;1.70;;;22.10;68.10;;;;;;4884062;29;20193;-89
2022/05/30 19:01:19;;;;;;;3.80;2.00;;;21.90;67.60;;;;;;4882347;29;20193;-89
2022/05/30 19:03:46;;;;;;;4.47;2.23;;;21.70;67.70;;;;;;4882251;29;20642;-90
2022/05/30 19:06:12;;;;;;;4.33;1.67;;;21.60;67.60;;;;;;4881841;29;20283;-89
2022/05/30 19:08:38;;;;;;;5.23;1.97;;;21.20;68.90;;;;;;4882110;29;20650;-90
2022/05/30 19:11:17;;;;;;;4.57;1.90;;;21.00;69.00;;;;;;4881800;29;20221;-90
2022/05/30 19:14:04;;;;;;;5.13;1.73;;;20.80;69.80;;;;;;4881940;29;20624;-90
2022/05/30 19:19:38;;;;;;;2.97;2.10;;;20.50;70.40;;;;;;4898632;29;20281;-89
2022/05/30 19:22:04;;;;;;;4.90;1.93;;;20.40;70.80;;;;;;4881643;29;20294;-91
2022/05/30 19:24:30;;;;;;;5.93;3.23;;;20.20;71.60;;;;;;4881702;29;20231;-90
2022/05/30 19:26:56;;;;;;;5.37;2.90;;;20.00;72.20;;;;;;4880886;29;20192;-90
2022/05/30 19:29:23;;;;;;;6.00;2.30;;;20.00;72.20;;;;;;4881780;29;20199;-90
2022/05/30 19:31:50;;;;;;;3.53;2.17;;;19.70;72.80;;;;;;4881500;29;20239;-89
2022/05/30 19:34:16;;;;;;;3.90;1.97;;;19.60;73.30;;;;;;4881268;29;20296;-89
2022/05/30 19:36:42;;;;;;;6.80;2.40;;;19.40;73.90;;;;;;4881396;29;20294;-90
2022/05/30 19:39:08;;;;;;;5.27;2.17;;;19.30;74.20;;;;;;4881143;29;20204;-90
2022/05/30 19:41:35;;;;;;;6.37;2.87;;;19.20;74.80;;;;;;4881560;29;20198;-91
2022/05/30 19:44:03;;;;;;;6.93;2.70;;;19.00;75.40;;;;;;4881706;29;20658;-89
2022/05/30 19:46:33;;;;;;;6.53;2.70;;;19.00;76.20;;;;;;4881565;29;20227;-89
2022/05/30 19:49:01;;;;;;;4.93;2.80;;;18.90;76.70;;;;;;4881478;29;20257;-88
2022/05/30 19:51:28;;;;;;;6.13;2.43;;;18.90;77.70;;;;;;4881671;29;20220;-89
2022/05/30 19:53:55;;;;;;;7.60;2.57;;;18.70;78.20;;;;;;4881460;29;20651;-89
2022/05/30 19:56:29;;;;;;;5.30;2.23;;;18.60;78.60;;;;;;4881242;29;20211;-90
2022/05/30 19:58:55;;;;;;;8.70;2.60;;;18.60;78.70;;;;;;4887076;29;20205;-89
2022/05/30 20:01:23;;;;;;;5.00;2.40;;;18.50;78.90;;;;;;4906644;29;20249;-92
2022/05/30 20:03:49;;;;;;;5.57;2.40;;;18.40;80.20;;;;;;4898216;29;20973;-89
2022/05/30 20:06:15;;;;;;;3.33;2.40;;;18.30;80.20;;;;;;4880979;29;20282;-93
2022/05/30 20:08:40;;;;;;;7.23;2.50;;;18.30;80.40;;;;;;4881203;29;20556;-89
2022/05/30 20:11:07;;;;;;;2.87;2.37;;;18.20;81.30;;;;;;4880659;29;20672;-89
2022/05/30 20:13:33;;;;;;;6.23;2.20;;;18.10;81.70;;;;;;4882285;29;20202;-86